createdAt,value
2023-05-20T00:00:16.308Z,13.04
2023-05-20T00:02:48.864Z,12.99
2023-05-20T00:05:27.871Z,12.96
2023-05-20T00:07:57.717Z,12.92
2023-05-20T00:10:27.581Z,12.95
2023-05-20T00:12:58.707Z,13.01
2023-05-20T00:15:31.457Z,13.06
2023-05-20T00:18:05.626Z,13.06
2023-05-20T00:20:37.918Z,13.03
2023-05-20T00:23:10.082Z,12.95
2023-05-20T00:25:46.491Z,12.93
2023-05-20T00:28:21.469Z,12.89
2023-05-20T00:31:04.039Z,12.92
2023-05-20T00:33:40.304Z,12.92
2023-05-20T00:36:14.161Z,12.96
2023-05-20T00:38:48.198Z,12.95
2023-05-20T00:41:18.055Z,12.96
2023-05-20T00:43:50.574Z,12.97
2023-05-20T00:46:23.097Z,12.94
2023-05-20T00:48:57.380Z,12.86
2023-05-20T00:51:34.088Z,12.83
2023-05-20T00:54:04.074Z,12.78
2023-05-20T00:56:34.849Z,12.83
2023-05-20T00:59:08.439Z,12.83
2023-05-20T01:01:42.337Z,12.81
2023-05-20T01:04:23.354Z,12.77
2023-05-20T01:06:53.302Z,12.71
2023-05-20T01:09:24.627Z,12.67
2023-05-20T01:12:10.841Z,12.72
2023-05-20T01:14:49.716Z,12.78
2023-05-20T01:17:27.474Z,12.82
2023-05-20T01:20:12.534Z,12.71
2023-05-20T01:31:22.864Z,12.73
2023-05-20T01:34:10.510Z,12.73
2023-05-20T01:36:41.947Z,12.71
2023-05-20T01:39:24.501Z,12.71
2023-05-20T01:41:54.784Z,12.80
2023-05-20T01:44:27.377Z,12.74
2023-05-20T01:47:00.058Z,12.71
2023-05-20T01:49:36.618Z,12.69
2023-05-20T01:52:08.213Z,12.62
2023-05-20T01:54:41.126Z,12.63
2023-05-20T01:57:13.882Z,12.63
2023-05-20T01:59:51.872Z,12.64
2023-05-20T02:02:24.462Z,12.61
2023-05-20T02:07:44.736Z,12.46
2023-05-20T02:10:17.910Z,12.50
2023-05-20T02:18:53.599Z,12.44
2023-05-20T02:21:35.390Z,12.37
2023-05-20T02:35:30.608Z,12.52
2023-05-20T02:38:25.513Z,12.42
2023-05-20T02:41:04.742Z,12.27
2023-05-20T02:43:34.888Z,12.30
2023-05-20T02:46:07.906Z,12.32
2023-05-20T02:48:37.773Z,12.32
2023-05-20T02:51:08.312Z,12.33
2023-05-20T02:53:40.981Z,12.36
2023-05-20T02:56:19.642Z,12.33
2023-05-20T02:59:01.575Z,12.31
2023-05-20T03:01:31.651Z,12.34
2023-05-20T03:04:01.582Z,12.29
2023-05-20T03:06:34.420Z,12.28
2023-05-20T03:09:10.294Z,12.31
2023-05-20T03:11:46.503Z,12.34
2023-05-20T03:14:19.856Z,12.36
2023-05-20T03:16:50.913Z,12.37
2023-05-20T03:19:23.918Z,12.31
2023-05-20T03:21:53.952Z,12.31
2023-05-20T03:24:26.610Z,12.28
2023-05-20T03:26:59.543Z,12.22
2023-05-20T03:29:38.000Z,12.21
2023-05-20T03:32:11.901Z,12.24
2023-05-20T03:34:45.899Z,12.25
2023-05-20T03:37:20.895Z,12.18
2023-05-20T03:39:54.708Z,12.19
2023-05-20T03:42:30.809Z,12.20
2023-05-20T03:45:13.633Z,12.20
2023-05-20T03:47:45.910Z,12.13
2023-05-20T03:50:20.118Z,12.12
2023-05-20T03:52:52.159Z,12.17
2023-05-20T03:55:28.490Z,12.16
2023-05-20T03:57:59.238Z,12.22
2023-05-20T04:00:30.820Z,12.26
2023-05-20T04:03:04.993Z,12.19
2023-05-20T04:05:36.681Z,12.17
2023-05-20T04:08:07.771Z,12.18
2023-05-20T04:10:40.311Z,12.18
2023-05-20T04:13:10.161Z,12.14
2023-05-20T04:15:40.144Z,12.07
2023-05-20T04:18:14.111Z,12.07
2023-05-20T04:20:44.180Z,12.12
2023-05-20T04:23:15.637Z,12.10
2023-05-20T04:25:49.038Z,12.03
2023-05-20T04:28:19.152Z,12.04
2023-05-20T04:31:04.816Z,12.05
2023-05-20T04:33:48.052Z,12.07
2023-05-20T04:36:20.667Z,12.00
2023-05-20T04:38:50.567Z,11.99
2023-05-20T04:41:23.016Z,11.97
2023-05-20T04:43:53.756Z,12.04
2023-05-20T04:46:26.222Z,12.02
2023-05-20T04:49:05.120Z,12.04
2023-05-20T04:51:37.832Z,12.10
2023-05-20T04:54:10.697Z,12.17
2023-05-20T04:56:52.001Z,12.29
2023-05-20T04:59:24.254Z,12.36
2023-05-20T05:18:34.389Z,14.45
2023-05-20T05:21:07.205Z,14.70
2023-05-20T05:23:43.146Z,14.99
2023-05-20T05:26:14.542Z,15.24
2023-05-20T05:28:47.448Z,15.33
2023-05-20T05:31:18.420Z,15.25
2023-05-20T05:41:46.527Z,15.31
2023-05-20T05:44:17.181Z,15.38
2023-05-20T05:46:47.066Z,15.50
2023-05-20T05:49:20.853Z,15.31
2023-05-20T05:51:50.919Z,15.43
2023-05-20T05:54:21.270Z,15.56
2023-05-20T05:57:01.994Z,15.54
2023-05-20T05:59:31.866Z,15.58
2023-05-20T06:02:04.217Z,15.82
2023-05-20T06:04:34.114Z,15.97
2023-05-20T06:07:06.976Z,16.04
2023-05-20T06:09:43.859Z,16.10
2023-05-20T06:12:23.514Z,15.98
2023-05-20T06:15:02.488Z,16.11
2023-05-20T06:17:32.460Z,16.14
2023-05-20T06:20:04.756Z,15.92
2023-05-20T06:22:34.642Z,15.87
2023-05-20T06:25:07.151Z,15.89
2023-05-20T06:27:44.319Z,15.93
2023-05-20T06:30:22.497Z,15.98
2023-05-20T06:32:52.511Z,16.17
2023-05-20T06:35:22.480Z,16.28
2023-05-20T06:37:58.725Z,16.26
2023-05-20T06:40:28.998Z,16.44
2023-05-20T06:43:01.516Z,16.40
2023-05-20T06:45:35.721Z,16.31
2023-05-20T06:48:05.839Z,16.32
2023-05-20T06:50:35.747Z,16.28
2023-05-20T06:53:08.947Z,16.20
2023-05-20T06:55:40.169Z,16.12
2023-05-20T06:58:19.994Z,16.28
2023-05-20T07:03:37.462Z,16.44
2023-05-20T07:06:09.028Z,16.38
2023-05-20T07:08:40.088Z,16.50
2023-05-20T07:11:15.439Z,16.47
2023-05-20T07:13:53.754Z,16.64
2023-05-20T07:16:23.643Z,16.67
2023-05-20T07:18:55.423Z,16.79
2023-05-20T07:21:26.861Z,16.99
2023-05-20T07:23:59.361Z,16.85
2023-05-20T07:26:31.025Z,16.92
2023-05-20T07:29:04.300Z,16.91
2023-05-20T07:31:38.508Z,16.92
2023-05-20T07:34:10.587Z,16.76
2023-05-20T07:36:40.546Z,16.65
2023-05-20T07:39:24.664Z,16.49
2023-05-20T07:42:02.972Z,16.42
2023-05-20T07:44:35.496Z,16.47
2023-05-20T07:47:08.137Z,16.55
2023-05-20T07:49:42.991Z,16.41
2023-05-20T07:52:13.072Z,16.55
2023-05-20T07:54:47.070Z,16.78
2023-05-20T07:57:18.569Z,16.71
2023-05-20T07:59:53.540Z,16.58
2023-05-20T08:02:23.498Z,16.65
2023-05-20T08:04:53.407Z,16.79
2023-05-20T08:07:25.883Z,16.70
2023-05-20T08:09:59.094Z,16.70
2023-05-20T08:12:28.941Z,16.61
2023-05-20T08:15:01.392Z,16.79
2023-05-20T08:17:31.261Z,16.78
2023-05-20T08:20:01.192Z,16.97
2023-05-20T08:22:31.620Z,16.98
2023-05-20T08:25:01.464Z,16.96
2023-05-20T08:27:31.308Z,16.90
2023-05-20T08:30:04.587Z,16.97
2023-05-20T08:32:34.676Z,17.01
2023-05-20T08:35:04.644Z,17.16
2023-05-20T08:37:34.542Z,17.15
2023-05-20T08:40:05.429Z,16.95
2023-05-20T08:42:36.984Z,17.04
2023-05-20T08:45:14.024Z,17.14
2023-05-20T08:47:46.392Z,17.36
2023-05-20T08:50:17.523Z,17.36
2023-05-20T08:52:49.285Z,17.25
2023-05-20T08:55:27.420Z,17.28
2023-05-20T08:57:58.274Z,17.02
2023-05-20T09:00:30.791Z,16.88
2023-05-20T09:03:02.887Z,16.85
2023-05-20T09:05:33.176Z,16.91
2023-05-20T09:08:10.046Z,16.85
2023-05-20T09:10:40.974Z,16.78
2023-05-20T09:13:12.393Z,16.92
2023-05-20T09:15:44.897Z,17.02
2023-05-20T09:18:15.046Z,17.16
2023-05-20T09:20:45.189Z,17.09
2023-05-20T09:23:15.017Z,16.97
2023-05-20T09:25:44.920Z,16.82
2023-05-20T09:28:14.766Z,16.77
2023-05-20T09:30:47.256Z,16.83
2023-05-20T09:33:17.151Z,16.74
2023-05-20T09:35:50.006Z,16.67
2023-05-20T09:38:20.834Z,16.60
2023-05-20T09:40:51.639Z,16.69
2023-05-20T09:43:21.899Z,16.65
2023-05-20T09:46:07.607Z,16.66
2023-05-20T09:48:39.372Z,16.65
2023-05-20T09:51:14.019Z,16.60
2023-05-20T09:53:45.537Z,16.50
2023-05-20T09:56:15.743Z,16.47
2023-05-20T09:58:49.769Z,16.46
2023-05-20T10:01:32.625Z,16.48
2023-05-20T10:04:09.709Z,16.62
2023-05-20T10:06:57.509Z,16.46
2023-05-20T10:09:42.243Z,16.50
2023-05-20T10:12:25.434Z,16.35
2023-05-20T10:15:09.061Z,16.35
2023-05-20T10:17:50.509Z,16.28
2023-05-20T10:20:23.134Z,16.19
2023-05-20T10:23:01.023Z,16.22
2023-05-20T10:25:32.537Z,16.29
2023-05-20T10:28:12.035Z,16.30
2023-05-20T10:30:54.851Z,16.19
2023-05-20T10:33:47.375Z,16.30
2023-05-20T10:36:27.993Z,16.31
2023-05-20T10:38:59.558Z,16.18
2023-05-20T10:41:31.583Z,16.30
2023-05-20T10:44:07.539Z,16.41
2023-05-20T10:47:00.021Z,16.38
2023-05-20T10:49:37.854Z,16.50
2023-05-20T10:52:10.308Z,16.49
2023-05-20T10:54:48.635Z,16.30
2023-05-20T10:57:23.157Z,16.28
2023-05-20T10:59:53.280Z,16.41
2023-05-20T11:02:27.358Z,16.43
2023-05-20T11:05:00.107Z,16.36
2023-05-20T11:07:30.743Z,16.29
2023-05-20T11:10:01.121Z,16.34
2023-05-20T11:12:31.350Z,16.35
2023-05-20T11:15:01.286Z,16.33
2023-05-20T11:17:32.625Z,16.40
2023-05-20T11:20:10.010Z,16.42
2023-05-20T11:22:42.802Z,16.31
2023-05-20T11:25:13.874Z,16.26
2023-05-20T11:27:43.837Z,16.29
2023-05-20T11:30:19.916Z,16.25
2023-05-20T11:33:02.558Z,16.38
2023-05-20T11:35:47.780Z,16.47
2023-05-20T11:38:21.951Z,16.44
2023-05-20T11:40:55.886Z,16.48
2023-05-20T11:43:30.325Z,16.60
2023-05-20T11:46:01.423Z,16.65
2023-05-20T11:48:34.367Z,16.69
2023-05-20T11:51:11.556Z,16.71
2023-05-20T11:53:44.086Z,16.66
2023-05-20T11:56:14.305Z,16.70
2023-05-20T11:58:47.262Z,16.70
2023-05-20T12:01:22.735Z,16.84
2023-05-20T12:03:53.410Z,16.86
2023-05-20T12:06:25.987Z,16.81
2023-05-20T12:08:55.826Z,16.85
2023-05-20T12:11:26.067Z,16.97
2023-05-20T12:13:59.129Z,17.02
2023-05-20T12:16:33.273Z,17.09
2023-05-20T12:19:06.386Z,17.24
2023-05-20T12:21:40.806Z,17.12
2023-05-20T12:24:20.824Z,17.05
2023-05-20T12:26:55.506Z,16.99
2023-05-20T12:29:25.479Z,16.95
2023-05-20T12:31:58.108Z,17.05
2023-05-20T12:34:38.208Z,17.05
2023-05-20T12:37:13.466Z,17.07
2023-05-20T12:39:44.473Z,17.00
2023-05-20T12:42:16.148Z,17.06
2023-05-20T12:44:48.332Z,17.15
2023-05-20T12:47:20.943Z,17.08
2023-05-20T12:49:52.506Z,17.11
2023-05-20T12:52:25.018Z,17.17
2023-05-20T12:54:59.716Z,17.22
2023-05-20T12:57:29.800Z,17.07
2023-05-20T13:00:02.830Z,17.11
2023-05-20T13:02:34.180Z,17.21
2023-05-20T13:05:04.183Z,17.16
2023-05-20T13:07:38.199Z,17.11
2023-05-20T13:10:11.649Z,17.17
2023-05-20T13:12:46.248Z,17.31
2023-05-20T13:15:18.746Z,17.32
2023-05-20T13:17:51.300Z,17.32
2023-05-20T13:20:22.937Z,17.42
2023-05-20T13:22:55.451Z,17.44
2023-05-20T13:25:25.292Z,17.47
2023-05-20T13:27:59.715Z,17.57
2023-05-20T13:30:29.600Z,17.49
2023-05-20T13:33:02.158Z,17.48
2023-05-20T13:35:33.589Z,17.50
2023-05-20T13:38:14.492Z,17.46
2023-05-20T13:40:47.503Z,17.40
2023-05-20T13:43:21.918Z,17.40
2023-05-20T13:45:57.634Z,17.52
2023-05-20T13:48:33.564Z,17.52
2023-05-20T13:51:03.427Z,17.48
2023-05-20T13:53:42.752Z,17.49
2023-05-20T13:56:13.870Z,17.60
2023-05-20T13:58:46.080Z,17.68
2023-05-20T14:01:16.960Z,17.72
2023-05-20T14:03:48.632Z,17.81
2023-05-20T14:06:25.077Z,17.87
2023-05-20T14:08:59.583Z,17.97
2023-05-20T14:11:29.451Z,17.95
2023-05-20T14:14:08.528Z,18.04
2023-05-20T14:16:39.787Z,18.06
2023-05-20T14:19:12.098Z,18.03
2023-05-20T14:21:43.436Z,17.87
2023-05-20T14:24:25.143Z,17.89
2023-05-20T14:26:55.052Z,17.89
2023-05-20T14:29:24.955Z,17.87
2023-05-20T14:31:59.278Z,17.84
2023-05-20T14:34:31.048Z,17.82
2023-05-20T14:37:07.762Z,17.86
2023-05-20T14:39:40.445Z,17.79
2023-05-20T14:42:11.306Z,17.74
2023-05-20T14:44:41.985Z,17.67
2023-05-20T14:47:11.916Z,17.73
2023-05-20T14:49:42.461Z,17.70
2023-05-20T14:52:12.350Z,17.66
2023-05-20T14:54:45.608Z,17.67
2023-05-20T14:57:16.156Z,17.63
2023-05-20T14:59:46.440Z,17.57
2023-05-20T15:02:17.205Z,17.53
2023-05-20T15:04:48.190Z,17.53
2023-05-20T15:07:18.463Z,17.67
2023-05-20T15:09:51.277Z,17.66
2023-05-20T15:12:21.153Z,17.54
2023-05-20T15:14:51.005Z,17.53
2023-05-20T15:17:20.985Z,17.46
2023-05-20T15:19:50.909Z,17.45
2023-05-20T15:22:20.953Z,17.46
2023-05-20T15:24:53.451Z,17.37
2023-05-20T15:27:23.432Z,17.28
2023-05-20T15:29:53.319Z,17.32
2023-05-20T15:32:23.405Z,17.42
2023-05-20T15:34:53.307Z,17.37
2023-05-20T15:37:23.952Z,17.30
2023-05-20T15:39:56.674Z,17.29
2023-05-20T15:42:27.165Z,17.29
2023-05-20T15:44:57.209Z,17.40
2023-05-20T15:47:27.100Z,17.48
2023-05-20T15:49:57.656Z,17.44
2023-05-20T15:52:27.566Z,17.36
2023-05-20T15:55:00.134Z,17.32
2023-05-20T15:57:30.888Z,17.27
2023-05-20T16:00:00.882Z,17.26
2023-05-20T16:02:34.712Z,17.21
2023-05-20T16:05:06.882Z,17.17
2023-05-20T16:07:46.195Z,17.23
2023-05-20T16:10:18.800Z,17.13
2023-05-20T16:12:48.762Z,17.04
2023-05-20T16:15:18.683Z,17.05
2023-05-20T16:17:48.555Z,17.04
2023-05-20T16:20:21.268Z,17.07
2023-05-20T16:22:58.183Z,17.05
2023-05-20T16:25:36.114Z,17.05
2023-05-20T16:28:08.350Z,17.02
2023-05-20T16:30:51.663Z,17.04
2023-05-20T16:33:25.508Z,17.06
2023-05-20T16:35:56.239Z,17.11
2023-05-20T16:38:28.816Z,17.15
2023-05-20T16:41:15.974Z,17.16
2023-05-20T16:43:47.173Z,17.00
2023-05-20T16:46:20.308Z,16.93
2023-05-20T16:48:51.780Z,17.01
2023-05-20T16:51:24.275Z,17.14
2023-05-20T16:53:54.140Z,17.15
2023-05-20T16:56:28.541Z,17.01
2023-05-20T16:58:58.553Z,16.91
2023-05-20T17:01:29.171Z,16.84
2023-05-20T17:03:59.278Z,16.68
2023-05-20T17:06:29.210Z,16.77
2023-05-20T17:09:05.071Z,16.71
2023-05-20T17:11:37.487Z,16.74
2023-05-20T17:14:07.365Z,16.72
2023-05-20T17:16:37.442Z,16.65
2023-05-20T17:19:08.176Z,16.55
2023-05-20T17:21:44.460Z,16.51
2023-05-20T17:24:14.480Z,16.51
2023-05-20T17:26:46.960Z,16.55
2023-05-20T17:29:17.619Z,16.53
2023-05-20T17:31:47.738Z,16.50
2023-05-20T17:34:17.711Z,16.39
2023-05-20T17:36:47.637Z,16.36
2023-05-20T17:39:17.586Z,16.38
2023-05-20T17:41:53.161Z,16.37
2023-05-20T17:44:24.589Z,16.30
2023-05-20T17:46:54.457Z,16.23
2023-05-20T17:49:24.297Z,16.20
2023-05-20T17:51:54.198Z,16.18
2023-05-20T17:54:24.097Z,16.19
2023-05-20T17:56:56.623Z,16.19
2023-05-20T17:59:26.629Z,16.16
2023-05-20T18:01:57.086Z,16.19
2023-05-20T18:04:28.129Z,16.34
2023-05-20T18:07:01.045Z,16.41
2023-05-20T18:09:30.914Z,16.52
2023-05-20T18:12:03.333Z,16.48
2023-05-20T18:14:33.176Z,16.43
2023-05-20T18:17:04.645Z,16.40
2023-05-20T18:19:39.329Z,16.39
2023-05-20T18:22:09.188Z,16.33
2023-05-20T18:24:39.091Z,16.20
2023-05-20T18:27:11.662Z,16.19
2023-05-20T18:29:41.545Z,16.21
2023-05-20T18:32:11.707Z,16.31
2023-05-20T18:34:41.626Z,16.31
2023-05-20T18:37:11.506Z,16.30
2023-05-20T18:39:41.365Z,16.30
2023-05-20T18:42:17.739Z,16.43
2023-05-20T18:44:47.590Z,16.55
2023-05-20T18:47:17.582Z,16.53
2023-05-20T18:49:47.855Z,16.58
2023-05-20T18:52:17.740Z,16.48
2023-05-20T18:54:47.590Z,16.47
2023-05-20T18:57:20.084Z,16.40
2023-05-20T18:59:49.970Z,16.44
2023-05-20T19:02:20.113Z,16.45
2023-05-20T19:04:50.013Z,16.44
2023-05-20T19:07:19.890Z,16.31
2023-05-20T19:09:54.052Z,16.28
2023-05-20T19:12:26.680Z,16.30
2023-05-20T19:14:56.634Z,16.31
2023-05-20T19:17:26.755Z,16.27
2023-05-20T19:19:56.643Z,16.28
2023-05-20T19:22:26.812Z,16.30
2023-05-20T19:24:56.667Z,16.34
2023-05-20T19:27:29.161Z,16.26
2023-05-20T19:29:59.072Z,16.30
2023-05-20T19:32:28.937Z,16.20
2023-05-20T19:34:58.915Z,16.23
2023-05-20T19:37:28.716Z,16.30
2023-05-20T19:39:58.574Z,16.36
2023-05-20T19:42:31.061Z,16.41
2023-05-20T19:45:03.241Z,16.42
2023-05-20T19:47:33.320Z,16.36
2023-05-20T19:50:03.219Z,16.39
2023-05-20T19:52:36.560Z,16.39
2023-05-20T19:55:07.111Z,16.36
2023-05-20T19:57:39.603Z,16.32
2023-05-20T20:00:11.549Z,16.33
2023-05-20T20:02:41.772Z,16.38
2023-05-20T20:05:13.361Z,16.44
2023-05-20T20:07:43.386Z,16.46
2023-05-20T20:10:14.004Z,16.49
2023-05-20T20:12:46.448Z,16.47
2023-05-20T20:15:16.306Z,16.46
2023-05-20T20:17:52.158Z,16.49
2023-05-20T20:20:23.712Z,16.45
2023-05-20T20:22:53.624Z,16.43
2023-05-20T20:25:25.879Z,16.45
2023-05-20T20:27:58.324Z,16.39
2023-05-20T20:30:28.169Z,16.26
2023-05-20T20:32:58.028Z,16.20
2023-05-20T20:35:28.727Z,16.14
2023-05-20T20:37:58.582Z,16.21
2023-05-20T20:40:29.426Z,16.26
2023-05-20T20:43:05.077Z,16.24
2023-05-20T20:45:35.104Z,16.11
2023-05-20T20:48:05.739Z,16.06
2023-05-20T20:50:35.987Z,16.01
2023-05-20T20:53:05.958Z,16.05
2023-05-20T20:55:36.006Z,16.00
2023-05-20T20:58:08.595Z,15.97
2023-05-20T21:00:41.827Z,16.00
2023-05-20T21:03:12.164Z,16.01
2023-05-20T21:05:42.061Z,16.07
2023-05-20T21:08:13.425Z,16.09
2023-05-20T21:10:45.709Z,16.12
2023-05-20T21:13:18.166Z,16.07
2023-05-20T21:15:48.042Z,16.02
2023-05-20T21:18:22.013Z,16.01
2023-05-20T21:20:52.838Z,16.04
2023-05-20T21:23:23.520Z,16.09
2023-05-20T21:25:53.491Z,16.12
2023-05-20T21:28:26.088Z,16.14
2023-05-20T21:30:56.779Z,16.17
2023-05-20T21:33:26.689Z,16.16
2023-05-20T21:35:56.555Z,16.16
2023-05-20T21:38:26.508Z,16.17
2023-05-20T21:40:58.305Z,16.15
2023-05-20T21:43:33.280Z,16.13
2023-05-20T21:46:03.196Z,16.18
2023-05-20T21:48:33.133Z,16.12
2023-05-20T21:51:03.012Z,16.15
2023-05-20T21:53:32.883Z,16.15
2023-05-20T21:56:02.749Z,16.16
2023-05-20T21:58:41.084Z,16.19
2023-05-20T22:01:11.970Z,16.15
2023-05-20T22:03:48.749Z,16.16
2023-05-20T22:06:21.605Z,16.19
2023-05-20T22:08:52.020Z,16.22
2023-05-20T22:11:21.942Z,16.23
2023-05-20T22:13:54.878Z,16.20
2023-05-20T22:16:24.969Z,16.20
2023-05-20T22:18:55.848Z,16.18
2023-05-20T22:21:26.468Z,16.14
2023-05-20T22:23:56.518Z,16.09
2023-05-20T22:26:27.006Z,16.09
2023-05-20T22:28:59.442Z,16.11
2023-05-20T22:31:29.396Z,16.10
2023-05-20T22:33:59.770Z,16.10
2023-05-20T22:36:34.370Z,16.07
2023-05-20T22:39:06.863Z,16.06
2023-05-20T22:41:36.765Z,16.05
2023-05-20T22:44:09.430Z,16.05
2023-05-20T22:46:39.522Z,16.09
2023-05-20T22:49:10.458Z,16.02
2023-05-20T22:51:41.308Z,16.00
2023-05-20T22:54:11.126Z,15.94
2023-05-20T22:56:43.267Z,15.93
2023-05-20T22:59:15.995Z,15.93
2023-05-20T23:01:46.293Z,15.94
2023-05-20T23:04:16.347Z,15.90
2023-05-20T23:06:47.014Z,15.88
2023-05-20T23:09:16.849Z,15.88
2023-05-20T23:11:46.709Z,15.76
2023-05-20T23:14:20.240Z,15.76
2023-05-20T23:16:51.138Z,15.77
2023-05-20T23:19:21.097Z,15.78
2023-05-20T23:21:50.958Z,15.74
2023-05-20T23:24:20.855Z,15.70
2023-05-20T23:26:51.397Z,15.69
2023-05-20T23:29:24.007Z,15.67
2023-05-20T23:31:53.874Z,15.70
2023-05-20T23:34:23.732Z,15.64
2023-05-20T23:36:53.668Z,15.69
2023-05-20T23:39:23.713Z,15.67
2023-05-20T23:41:58.187Z,15.61
2023-05-20T23:44:31.426Z,15.58
2023-05-20T23:47:01.731Z,15.55
2023-05-20T23:49:32.318Z,15.58
2023-05-20T23:52:02.346Z,15.58
2023-05-20T23:54:34.455Z,15.64
2023-05-20T23:57:04.319Z,15.56
2023-05-20T23:59:36.767Z,15.55
